createdAt,value
2023-02-11T00:01:34.746Z,3.78
2023-02-11T00:04:03.409Z,4.15
2023-02-11T00:06:32.340Z,4.20
2023-02-11T00:09:00.336Z,4.03
2023-02-11T00:11:31.686Z,3.60
2023-02-11T00:14:02.623Z,3.78
2023-02-11T00:16:31.601Z,3.85
2023-02-11T00:19:03.707Z,4.28
2023-02-11T00:21:34.848Z,4.07
2023-02-11T00:24:02.430Z,4.25
2023-02-11T00:26:33.404Z,4.90
2023-02-11T00:29:01.770Z,4.03
2023-02-11T00:31:30.000Z,3.90
2023-02-11T00:33:57.863Z,4.68
2023-02-11T00:36:27.893Z,4.15
2023-02-11T00:38:56.300Z,3.45
2023-02-11T00:41:24.171Z,3.38
2023-02-11T00:43:51.968Z,3.47
2023-02-11T00:46:19.696Z,3.25
2023-02-11T00:48:47.170Z,3.58
2023-02-11T00:51:16.883Z,3.65
2023-02-11T00:53:46.450Z,3.72
2023-02-11T00:56:14.809Z,3.25
2023-02-11T00:58:42.519Z,3.75
2023-02-11T01:01:10.134Z,3.13
2023-02-11T01:03:37.153Z,3.60
2023-02-11T01:06:05.427Z,3.28
2023-02-11T01:08:35.238Z,2.88
2023-02-11T01:11:04.821Z,2.55
2023-02-11T01:13:34.291Z,2.53
2023-02-11T01:16:01.779Z,3.03
2023-02-11T01:18:29.499Z,3.42
2023-02-11T01:20:56.830Z,2.70
2023-02-11T01:23:26.833Z,2.75
2023-02-11T01:25:54.675Z,3.40
2023-02-11T01:28:24.861Z,2.90
2023-02-11T01:30:55.187Z,2.60
2023-02-11T01:33:31.043Z,1.92
2023-02-11T01:36:04.170Z,3.17
2023-02-11T01:38:32.556Z,3.08
2023-02-11T01:41:09.485Z,3.00
2023-02-11T01:43:43.111Z,3.60
2023-02-11T01:46:34.672Z,3.38
2023-02-11T01:49:08.854Z,3.33
2023-02-11T01:51:59.416Z,2.70
2023-02-11T01:54:49.360Z,3.05
2023-02-11T01:57:27.879Z,3.00
2023-02-11T02:00:22.961Z,3.42
2023-02-11T02:03:03.140Z,3.13
2023-02-11T02:06:30.558Z,3.00
2023-02-11T02:09:02.157Z,2.78
2023-02-11T02:11:29.402Z,3.30
2023-02-11T02:13:56.500Z,3.20
2023-02-11T02:16:27.766Z,3.45
2023-02-11T02:19:12.938Z,3.05
2023-02-11T02:21:52.080Z,2.95
2023-02-11T02:24:58.923Z,2.40
2023-02-11T02:27:35.371Z,3.17
2023-02-11T02:30:32.644Z,3.50
2023-02-11T02:33:22.803Z,2.28
2023-02-11T02:35:53.891Z,3.00
2023-02-11T02:38:33.311Z,3.50
2023-02-11T02:41:06.905Z,2.42
2023-02-11T02:43:36.222Z,3.20
2023-02-11T02:46:24.350Z,3.35
2023-02-11T02:48:52.928Z,3.75
2023-02-11T02:51:47.310Z,3.10
2023-02-11T02:54:30.310Z,3.95
2023-02-11T02:57:36.008Z,3.13
2023-02-11T03:00:08.984Z,3.67
2023-02-11T03:02:55.598Z,3.83
2023-02-11T03:05:45.629Z,3.38
2023-02-11T03:08:25.521Z,2.92
2023-02-11T03:10:54.619Z,3.58
2023-02-11T03:13:27.472Z,3.15
2023-02-11T03:15:58.140Z,3.25
2023-02-11T03:18:29.765Z,3.20
2023-02-11T03:21:00.039Z,3.47
2023-02-11T03:24:07.665Z,3.63
2023-02-11T03:26:55.360Z,3.15
2023-02-11T03:29:32.227Z,3.38
2023-02-11T03:35:02.141Z,2.78
2023-02-11T03:37:48.773Z,2.78
2023-02-11T03:40:20.518Z,3.20
2023-02-11T03:43:05.958Z,3.58
2023-02-11T03:45:35.983Z,3.05
2023-02-11T03:48:13.092Z,3.50
2023-02-11T03:50:46.001Z,2.60
2023-02-11T03:53:14.865Z,2.90
2023-02-11T03:55:44.113Z,3.25
2023-02-11T03:58:11.681Z,2.80
2023-02-11T04:00:41.668Z,3.47
2023-02-11T04:03:10.464Z,2.83
2023-02-11T04:05:38.990Z,2.60
2023-02-11T04:08:09.545Z,3.13
2023-02-11T04:10:36.674Z,2.60
2023-02-11T04:13:03.689Z,3.13
2023-02-11T04:15:31.188Z,3.13
2023-02-11T04:17:59.309Z,3.20
2023-02-11T04:20:26.556Z,2.85
2023-02-11T04:23:12.794Z,2.80
2023-02-11T04:25:39.891Z,3.13
2023-02-11T04:28:07.010Z,3.40
2023-02-11T04:30:37.176Z,2.72
2023-02-11T04:33:04.712Z,3.25
2023-02-11T04:35:34.539Z,3.10
2023-02-11T04:38:01.663Z,4.10
2023-02-11T04:40:28.802Z,3.95
2023-02-11T04:42:56.333Z,3.92
2023-02-11T04:48:19.459Z,3.85
2023-02-11T04:50:46.544Z,3.00
2023-02-11T04:53:14.108Z,3.92
2023-02-11T04:55:41.316Z,4.00
2023-02-11T04:58:09.031Z,3.70
2023-02-11T05:03:17.597Z,3.15
2023-02-11T05:05:44.779Z,2.65
2023-02-11T05:08:12.128Z,3.10
2023-02-11T05:10:39.796Z,2.63
2023-02-11T05:13:06.935Z,3.55
2023-02-11T05:15:38.877Z,2.42
2023-02-11T05:18:06.065Z,2.78
2023-02-11T05:20:34.879Z,2.47
2023-02-11T05:23:02.305Z,2.55
2023-02-11T05:25:29.501Z,2.78
2023-02-11T05:27:56.949Z,3.92
2023-02-11T05:30:24.238Z,3.30
2023-02-11T05:32:51.391Z,3.80
2023-02-11T05:35:19.034Z,3.50
2023-02-11T05:37:46.263Z,3.80
2023-02-11T05:40:13.916Z,3.38
2023-02-11T05:42:40.937Z,3.22
2023-02-11T05:45:08.308Z,2.20
2023-02-11T05:47:35.884Z,2.72
2023-02-11T05:50:02.995Z,2.85
2023-02-11T05:52:29.915Z,2.17
2023-02-11T05:54:57.098Z,2.80
2023-02-11T05:57:24.327Z,2.80
2023-02-11T05:59:51.380Z,2.67
2023-02-11T06:02:18.785Z,2.25
2023-02-11T06:04:46.371Z,2.60
2023-02-11T06:07:13.452Z,2.42
2023-02-11T06:09:40.595Z,2.55
2023-02-11T06:12:07.912Z,2.47
2023-02-11T06:14:36.821Z,2.38
2023-02-11T06:17:04.078Z,2.08
2023-02-11T06:19:39.807Z,2.20
2023-02-11T06:22:07.217Z,2.53
2023-02-11T06:24:58.520Z,2.65
2023-02-11T06:27:21.894Z,2.55
2023-02-11T06:29:49.147Z,2.95
2023-02-11T06:32:37.010Z,2.45
2023-02-11T06:35:03.858Z,2.15
2023-02-11T06:37:30.934Z,1.88
2023-02-11T06:39:59.902Z,2.55
2023-02-11T06:42:27.092Z,2.45
2023-02-11T06:44:54.380Z,2.03
2023-02-11T06:47:21.784Z,2.58
2023-02-11T06:49:49.013Z,2.35
2023-02-11T06:52:17.989Z,2.10
2023-02-11T06:54:45.454Z,2.38
2023-02-11T06:57:15.358Z,2.05
2023-02-11T06:59:42.373Z,2.72
2023-02-11T07:02:10.883Z,2.55
2023-02-11T07:04:38.972Z,2.92
2023-02-11T07:07:06.772Z,2.85
2023-02-11T07:09:33.846Z,2.97
2023-02-11T07:12:00.857Z,4.30
2023-02-11T07:14:28.454Z,2.97
2023-02-11T07:16:56.159Z,3.00
2023-02-11T07:19:23.127Z,3.92
2023-02-11T07:21:50.255Z,3.72
2023-02-11T07:24:17.554Z,5.03
2023-02-11T07:26:53.833Z,4.80
2023-02-11T07:29:24.572Z,5.88
2023-02-11T07:31:55.002Z,6.50
2023-02-11T07:34:22.609Z,6.03
2023-02-11T07:36:50.072Z,7.00
2023-02-11T07:39:17.863Z,5.88
2023-02-11T07:41:47.826Z,6.32
2023-02-11T07:44:16.208Z,5.10
2023-02-11T07:46:45.456Z,4.82
2023-02-11T07:49:12.941Z,5.22
2023-02-11T07:51:40.365Z,6.47
2023-02-11T07:54:07.720Z,6.05
2023-02-11T07:56:34.933Z,5.80
2023-02-11T07:59:04.844Z,6.57
2023-02-11T08:01:32.848Z,6.35
2023-02-11T08:04:01.593Z,6.50
2023-02-11T08:06:31.239Z,6.78
2023-02-11T08:08:58.705Z,6.00
2023-02-11T08:11:28.192Z,7.20
2023-02-11T08:13:56.765Z,7.65
2023-02-11T08:16:31.484Z,8.05
2023-02-11T08:19:02.559Z,7.85
2023-02-11T08:21:30.160Z,8.23
2023-02-11T08:23:57.554Z,8.07
2023-02-11T08:26:27.524Z,9.18
2023-02-11T08:28:56.800Z,9.05
2023-02-11T08:31:27.606Z,9.13
2023-02-11T08:33:58.233Z,8.57
2023-02-11T08:36:37.589Z,10.00
2023-02-11T08:39:18.499Z,10.13
2023-02-11T08:41:53.277Z,7.05
2023-02-11T08:44:21.895Z,7.47
2023-02-11T08:46:53.184Z,8.57
2023-02-11T08:49:22.508Z,8.60
2023-02-11T08:51:51.379Z,8.82
2023-02-11T08:54:19.442Z,9.02
2023-02-11T08:56:50.911Z,8.60
2023-02-11T08:59:21.160Z,8.82
2023-02-11T09:01:48.923Z,9.00
2023-02-11T09:04:16.225Z,9.95
2023-02-11T09:06:51.848Z,8.30
2023-02-11T09:09:18.830Z,9.35
2023-02-11T09:11:51.402Z,9.02
2023-02-11T09:14:22.292Z,8.52
2023-02-11T09:16:53.964Z,9.40
2023-02-11T09:19:21.934Z,7.78
2023-02-11T09:21:49.274Z,8.75
2023-02-11T09:24:17.305Z,9.00
2023-02-11T09:26:44.694Z,8.75
2023-02-11T09:29:15.056Z,9.20
2023-02-11T09:31:44.744Z,8.77
2023-02-11T09:34:16.075Z,8.70
2023-02-11T09:36:43.437Z,8.27
2023-02-11T09:39:17.361Z,8.43
2023-02-11T09:41:56.442Z,7.68
2023-02-11T09:44:34.348Z,7.57
2023-02-11T09:47:05.499Z,7.30
2023-02-11T09:52:24.765Z,6.97
2023-02-11T09:55:00.943Z,5.88
2023-02-11T09:57:36.553Z,5.53
2023-02-11T10:00:37.122Z,6.25
2023-02-11T10:03:33.634Z,5.22
2023-02-11T10:06:01.197Z,5.82
2023-02-11T10:08:39.056Z,5.35
2023-02-11T10:11:09.217Z,4.93
2023-02-11T10:13:59.107Z,5.20
2023-02-11T10:16:29.593Z,4.90
2023-02-11T10:19:14.400Z,4.85
2023-02-11T10:21:51.666Z,4.30
2023-02-11T10:24:19.437Z,4.68
2023-02-11T10:26:47.040Z,5.10
2023-02-11T10:29:40.909Z,6.00
2023-02-11T10:32:32.655Z,3.85
2023-02-11T10:35:04.737Z,4.97
2023-02-11T10:37:32.229Z,5.13
2023-02-11T10:40:02.416Z,4.13
2023-02-11T10:42:30.762Z,4.38
2023-02-11T10:45:02.537Z,4.32
2023-02-11T10:47:37.213Z,4.30
2023-02-11T10:50:26.336Z,4.30
2023-02-11T10:52:56.547Z,4.32
2023-02-11T10:55:30.918Z,4.47
2023-02-11T10:58:03.537Z,4.55
2023-02-11T11:00:39.334Z,3.95
2023-02-11T11:03:27.830Z,4.68
2023-02-11T11:06:00.912Z,5.03
2023-02-11T11:08:45.279Z,4.75
2023-02-11T11:11:18.400Z,4.95
2023-02-11T11:13:59.301Z,5.03
2023-02-11T11:16:35.278Z,4.47
2023-02-11T11:19:08.596Z,4.38
2023-02-11T11:21:46.306Z,5.18
2023-02-11T11:24:29.490Z,4.45
2023-02-11T11:27:02.566Z,5.25
2023-02-11T11:29:33.157Z,6.88
2023-02-11T11:32:04.827Z,6.82
2023-02-11T11:34:42.425Z,7.28
2023-02-11T11:37:34.908Z,7.90
2023-02-11T11:40:17.354Z,7.97
2023-02-11T11:45:22.265Z,8.23
2023-02-11T11:47:58.685Z,7.45
2023-02-11T11:50:40.184Z,8.07
2023-02-11T11:53:15.771Z,7.18
2023-02-11T11:55:51.820Z,7.85
2023-02-11T11:58:22.059Z,7.32
2023-02-11T12:01:13.430Z,8.00
2023-02-11T12:04:17.907Z,7.68
2023-02-11T12:06:59.969Z,7.25
2023-02-11T12:09:58.053Z,7.15
2023-02-11T12:12:50.304Z,7.57
2023-02-11T12:15:23.785Z,7.28
2023-02-11T12:18:26.159Z,7.30
2023-02-11T12:21:25.510Z,7.40
2023-02-11T12:24:11.324Z,6.63
2023-02-11T12:26:56.719Z,6.43
2023-02-11T12:29:55.858Z,7.45
2023-02-11T12:32:54.342Z,6.15
2023-02-11T12:35:31.025Z,7.32
2023-02-11T12:38:26.941Z,6.60
2023-02-11T12:41:15.223Z,6.57
2023-02-11T12:43:45.823Z,6.35
2023-02-11T12:46:31.253Z,6.88
2023-02-11T12:49:03.522Z,6.43
2023-02-11T12:51:52.490Z,5.78
2023-02-11T12:54:29.089Z,6.30
2023-02-11T12:57:11.983Z,6.22
2023-02-11T12:59:59.301Z,5.20
2023-02-11T13:02:47.771Z,5.93
2023-02-11T13:05:34.459Z,6.65
2023-02-11T13:08:16.380Z,6.22
2023-02-11T13:10:51.300Z,7.65
2023-02-11T13:13:26.998Z,7.03
2023-02-11T13:16:15.062Z,6.78
2023-02-11T13:18:51.259Z,7.18
2023-02-11T13:22:16.647Z,7.53
2023-02-11T13:25:05.400Z,7.68
2023-02-11T13:27:58.535Z,6.18
2023-02-11T13:30:34.753Z,6.10
2023-02-11T13:33:03.837Z,6.28
2023-02-11T13:35:37.474Z,7.32
2023-02-11T13:38:26.568Z,7.18
2023-02-11T13:41:26.127Z,6.82
2023-02-11T13:44:09.625Z,6.05
2023-02-11T13:47:09.153Z,7.60
2023-02-11T13:49:40.997Z,7.38
2023-02-11T13:52:30.714Z,6.95
2023-02-11T13:55:08.051Z,7.18
2023-02-11T13:57:37.636Z,7.72
2023-02-11T14:00:43.612Z,8.63
2023-02-11T14:03:32.420Z,8.63
2023-02-11T14:06:42.987Z,8.88
2023-02-11T14:09:10.290Z,9.68
2023-02-11T14:11:50.909Z,9.45
2023-02-11T14:14:24.414Z,9.82
2023-02-11T14:17:21.434Z,10.45
2023-02-11T14:19:49.702Z,9.75
2023-02-11T14:22:23.821Z,10.50
2023-02-11T14:24:59.725Z,11.10
2023-02-11T14:27:31.904Z,9.52
2023-02-11T14:30:08.138Z,9.85
2023-02-11T14:33:14.758Z,10.23
2023-02-11T14:36:11.660Z,10.40
2023-02-11T14:38:57.643Z,10.18
2023-02-11T14:41:31.088Z,9.15
2023-02-11T14:44:01.821Z,9.60
2023-02-11T14:46:33.168Z,9.27
2023-02-11T14:49:06.503Z,9.38
2023-02-11T14:51:40.620Z,9.90
2023-02-11T14:54:17.537Z,10.00
2023-02-11T14:56:46.910Z,9.88
2023-02-11T14:59:20.283Z,9.48
2023-02-11T15:01:52.296Z,9.57
2023-02-11T15:04:33.760Z,8.65
2023-02-11T15:07:07.027Z,8.80
2023-02-11T15:09:41.840Z,9.20
2023-02-11T15:12:25.332Z,7.95
2023-02-11T15:14:58.834Z,8.40
2023-02-11T15:17:29.938Z,8.52
2023-02-11T15:20:05.203Z,8.40
2023-02-11T15:22:37.716Z,8.38
2023-02-11T15:25:11.834Z,8.75
2023-02-11T15:27:51.101Z,8.63
2023-02-11T15:30:26.752Z,8.90
2023-02-11T15:33:03.724Z,8.13
2023-02-11T15:35:35.239Z,8.13
2023-02-11T15:38:02.533Z,8.25
2023-02-11T15:40:35.396Z,8.52
2023-02-11T15:43:11.786Z,8.50
2023-02-11T15:45:44.697Z,8.88
2023-02-11T15:48:32.371Z,8.75
2023-02-11T15:51:08.641Z,9.25
2023-02-11T15:53:43.098Z,8.18
2023-02-11T15:56:17.718Z,8.98
2023-02-11T15:58:47.903Z,9.55
2023-02-11T16:01:15.128Z,9.70
2023-02-11T16:03:43.820Z,10.73
2023-02-11T16:06:25.434Z,9.95
2023-02-11T16:09:26.412Z,10.00
2023-02-11T16:11:59.525Z,8.77
2023-02-11T16:14:29.694Z,9.25
2023-02-11T16:17:10.061Z,9.45
2023-02-11T16:19:47.207Z,8.40
2023-02-11T16:22:27.689Z,8.52
2023-02-11T16:24:58.467Z,7.97
2023-02-11T16:27:34.568Z,7.07
2023-02-11T16:30:04.858Z,8.07
2023-02-11T16:32:32.354Z,8.57
2023-02-11T16:35:01.627Z,8.82
2023-02-11T16:37:29.200Z,8.43
2023-02-11T16:40:07.080Z,7.82
2023-02-11T16:42:34.228Z,8.77
2023-02-11T16:45:01.369Z,8.30
2023-02-11T16:47:29.243Z,9.13
2023-02-11T16:49:57.573Z,8.43
2023-02-11T16:52:25.454Z,7.80
2023-02-11T16:54:53.002Z,7.00
2023-02-11T16:57:28.880Z,8.45
2023-02-11T16:59:58.374Z,7.20
2023-02-11T17:02:32.021Z,8.85
2023-02-11T17:05:01.923Z,8.32
2023-02-11T17:07:29.904Z,8.20
2023-02-11T17:09:57.499Z,9.60
2023-02-11T17:12:25.562Z,8.27
2023-02-11T17:14:53.518Z,8.48
2023-02-11T17:17:22.216Z,8.80
2023-02-11T17:19:49.528Z,7.85
2023-02-11T17:22:19.607Z,7.47
2023-02-11T17:24:46.512Z,7.72
2023-02-11T17:27:13.473Z,7.13
2023-02-11T17:29:40.709Z,7.32
2023-02-11T17:32:07.910Z,7.38
2023-02-11T17:34:35.239Z,7.25
2023-02-11T17:37:09.018Z,6.30
2023-02-11T17:39:38.097Z,7.43
2023-02-11T17:42:06.896Z,7.07
2023-02-11T17:44:34.209Z,6.45
2023-02-11T17:47:01.215Z,6.40
2023-02-11T17:49:28.622Z,6.60
2023-02-11T17:51:55.739Z,6.30
2023-02-11T17:54:23.751Z,6.45
2023-02-11T17:56:58.089Z,5.40
2023-02-11T17:59:31.902Z,5.03
2023-02-11T18:01:58.917Z,5.22
2023-02-11T18:04:25.887Z,5.65
2023-02-11T18:06:53.757Z,5.90
2023-02-11T18:09:20.853Z,5.18
2023-02-11T18:11:48.825Z,4.88
2023-02-11T18:14:16.092Z,5.38
2023-02-11T18:16:45.155Z,4.82
2023-02-11T18:19:12.954Z,5.25
2023-02-11T18:21:40.423Z,4.78
2023-02-11T18:24:07.602Z,4.80
2023-02-11T18:26:40.577Z,3.85
2023-02-11T18:29:07.719Z,4.38
2023-02-11T18:31:38.167Z,4.20
2023-02-11T18:34:07.692Z,4.60
2023-02-11T18:36:34.963Z,4.25
2023-02-11T18:39:02.618Z,4.80
2023-02-11T18:41:29.925Z,3.70
2023-02-11T18:43:58.924Z,4.00
2023-02-11T18:46:26.384Z,4.18
2023-02-11T18:48:55.980Z,4.25
2023-02-11T18:51:23.577Z,3.90
2023-02-11T18:53:50.774Z,3.45
2023-02-11T18:56:23.268Z,3.20
2023-02-11T18:58:51.495Z,3.28
2023-02-11T19:01:24.612Z,3.25
2023-02-11T19:03:52.505Z,3.08
2023-02-11T19:06:26.253Z,3.28
2023-02-11T19:08:59.933Z,3.67
2023-02-11T19:11:47.533Z,2.50
2023-02-11T19:14:34.445Z,2.80
2023-02-11T19:17:03.952Z,3.45
2023-02-11T19:19:35.387Z,3.50
2023-02-11T19:22:04.195Z,2.90
2023-02-11T19:24:31.377Z,3.15
2023-02-11T19:27:01.301Z,3.10
2023-02-11T19:29:32.376Z,2.78
2023-02-11T19:31:59.760Z,2.88
2023-02-11T19:34:27.188Z,3.05
2023-02-11T19:36:54.556Z,2.85
2023-02-11T19:39:24.060Z,2.92
2023-02-11T19:41:51.224Z,3.25
2023-02-11T19:44:19.171Z,2.47
2023-02-11T19:46:46.355Z,2.80
2023-02-11T19:49:24.489Z,2.80
2023-02-11T19:51:54.748Z,2.67
2023-02-11T19:54:22.203Z,2.53
2023-02-11T19:56:49.348Z,2.60
2023-02-11T19:59:17.057Z,2.63
2023-02-11T20:01:47.750Z,2.92
2023-02-11T20:04:16.324Z,2.33
2023-02-11T20:06:43.576Z,2.88
2023-02-11T20:09:14.516Z,2.92
2023-02-11T20:11:42.100Z,2.20
2023-02-11T20:14:11.691Z,2.92
2023-02-11T20:16:48.178Z,2.47
2023-02-11T20:19:18.727Z,3.08
2023-02-11T20:21:51.088Z,2.38
2023-02-11T20:24:19.177Z,2.83
2023-02-11T20:26:48.779Z,2.22
2023-02-11T20:29:17.582Z,2.40
2023-02-11T20:31:44.865Z,2.75
2023-02-11T20:34:13.136Z,2.85
2023-02-11T20:36:40.943Z,2.72
2023-02-11T20:39:11.676Z,2.28
2023-02-11T20:46:37.560Z,1.70
2023-02-11T20:49:06.343Z,2.22
2023-02-11T20:51:35.187Z,2.75
2023-02-11T20:54:02.374Z,2.60
2023-02-11T20:56:32.237Z,2.47
2023-02-11T20:59:00.571Z,3.05
2023-02-11T21:01:49.038Z,2.55
2023-02-11T21:04:27.767Z,2.38
2023-02-11T21:06:57.896Z,2.38
2023-02-11T21:09:28.007Z,2.22
2023-02-11T21:11:55.664Z,2.50
2023-02-11T21:14:25.025Z,2.25
2023-02-11T21:16:52.614Z,2.95
2023-02-11T21:19:20.367Z,2.80
2023-02-11T21:21:47.982Z,2.38
2023-02-11T21:24:15.909Z,2.55
2023-02-11T21:26:43.500Z,2.25
2023-02-11T21:29:12.292Z,3.00
2023-02-11T21:31:39.594Z,2.90
2023-02-11T21:34:07.776Z,2.60
2023-02-11T21:36:35.096Z,3.00
2023-02-11T21:39:04.032Z,3.42
2023-02-11T21:41:31.318Z,3.17
2023-02-11T21:43:58.539Z,2.75
2023-02-11T21:46:38.325Z,2.88
2023-02-11T21:49:05.426Z,2.70
2023-02-11T21:51:32.704Z,2.92
2023-02-11T21:54:04.621Z,2.72
2023-02-11T21:56:33.661Z,3.17
2023-02-11T21:59:01.212Z,2.85
2023-02-11T22:01:33.248Z,2.28
2023-02-11T22:04:00.973Z,2.22
2023-02-11T22:06:31.373Z,2.53
2023-02-11T22:09:00.007Z,2.72
2023-02-11T22:11:30.382Z,2.80
2023-02-11T22:13:59.219Z,2.40
2023-02-11T22:16:28.394Z,2.28
2023-02-11T22:21:50.452Z,2.63
2023-02-11T22:24:17.449Z,2.70
2023-02-11T22:26:45.108Z,2.63
2023-02-11T22:29:12.932Z,2.80
2023-02-11T22:31:40.370Z,2.28
2023-02-11T22:34:07.750Z,2.50
2023-02-11T22:36:40.855Z,2.47
2023-02-11T22:39:12.647Z,2.15
2023-02-11T22:41:46.809Z,2.70
2023-02-11T22:44:17.359Z,2.25
2023-02-11T22:49:25.638Z,2.80
2023-02-11T22:51:55.706Z,2.38
2023-02-11T22:54:22.981Z,2.25
2023-02-11T22:56:52.244Z,2.88
2023-02-11T22:59:22.076Z,2.40
2023-02-11T23:01:51.852Z,2.70
2023-02-11T23:04:21.442Z,2.67
2023-02-11T23:06:51.324Z,2.72
2023-02-11T23:09:18.476Z,2.88
2023-02-11T23:11:47.193Z,1.98
2023-02-11T23:14:16.955Z,2.65
2023-02-11T23:16:44.465Z,3.22
2023-02-11T23:19:12.663Z,2.72
2023-02-11T23:21:40.109Z,2.88
2023-02-11T23:24:14.845Z,3.13
2023-02-11T23:26:43.561Z,3.03
2023-02-11T23:29:11.328Z,3.22
2023-02-11T23:31:44.183Z,3.25
2023-02-11T23:34:12.123Z,3.25
2023-02-11T23:36:39.403Z,3.30
2023-02-11T23:39:06.720Z,3.20
2023-02-11T23:41:33.827Z,3.33
2023-02-11T23:44:01.507Z,2.45
2023-02-11T23:46:29.365Z,2.35
2023-02-11T23:48:56.679Z,2.20
2023-02-11T23:51:24.763Z,3.30
2023-02-11T23:53:57.346Z,3.33
2023-02-11T23:56:27.635Z,2.92
2023-02-11T23:58:59.755Z,2.75
